Time;durP1;ratioP1;P1;durP2;ratioP2;P2;SDS_P1;SDS_P2;PMS_P1;PMS_P2;Temp;Humidity;BMP_temperature;BMP_pressure;BME280_temperature;BME280_humidity;BME280_pressure;Samples;Min_cycle;Max_cycle;Signal;HPM_P1;HPM_P2
2021/11/23 00:00:08;;;;;;;1097.72;999.90;;;;;;;2.28;65.76;102164.38;689285;28;68322;-69
2021/11/23 00:00:35;;;;;;;1095.60;999.90;;;;;;;2.29;65.85;102166.09;686101;28;160564;-68
2021/11/23 00:00:56;;;;;;;1094.88;999.90;;;;;;;2.28;65.79;102173.22;689759;28;69491;-68
2021/11/23 00:01:20;;;;;;;1092.70;999.90;;;;;;;2.27;65.79;102165.31;691128;28;23907;-69
2021/11/23 00:01:41;;;;;;;1091.80;999.90;;;;;;;2.26;65.86;102164.44;688055;28;92410;-69
2021/11/23 00:02:02;;;;;;;1089.22;999.90;;;;;;;2.28;65.79;102172.38;690172;28;44386;-69
2021/11/23 00:02:24;;;;;;;1085.82;999.90;;;;;;;2.29;65.89;102171.44;691537;28;22385;-69
2021/11/23 00:02:47;;;;;;;1093.10;999.90;;;;;;;2.28;65.93;102167.03;689453;28;44388;-69
2021/11/23 00:03:08;;;;;;;1094.90;999.90;;;;;;;2.28;65.97;102177.69;689754;28;69345;-69
2021/11/23 00:03:30;;;;;;;1099.00;999.90;;;;;;;2.29;66.01;102163.44;691712;28;20800;-69
2021/11/23 00:03:52;;;;;;;1094.53;999.90;;;;;;;2.28;65.89;102167.03;690016;28;45295;-68
2021/11/23 00:04:13;;;;;;;1091.50;999.90;;;;;;;2.29;65.92;102171.44;690140;28;44373;-69
2021/11/23 00:04:35;;;;;;;1099.35;999.90;;;;;;;2.30;65.92;102162.47;690620;28;46529;-69
2021/11/23 00:04:56;;;;;;;1099.78;999.90;;;;;;;2.29;65.91;102169.63;690975;28;21527;-69
2021/11/23 00:05:18;;;;;;;1096.90;999.90;;;;;;;2.29;65.93;102166.09;691000;28;23413;-69
2021/11/23 00:05:41;;;;;;;1094.00;999.90;;;;;;;2.26;65.92;102164.44;689282;28;67662;-69
2021/11/23 00:06:02;;;;;;;1093.95;999.90;;;;;;;2.30;65.88;102163.34;690134;28;46214;-69
2021/11/23 00:06:25;;;;;;;1093.15;999.90;;;;;;;2.28;65.79;102161.69;690928;28;43723;-70
2021/11/23 00:06:46;;;;;;;1094.68;999.90;;;;;;;2.30;65.89;102167.78;688816;28;44381;-69
2021/11/23 00:07:07;;;;;;;1093.72;999.90;;;;;;;2.28;65.96;102164.38;689585;28;22200;-69
2021/11/23 00:07:29;;;;;;;1094.00;999.90;;;;;;;2.29;65.99;102172.28;690886;28;22481;-69
2021/11/23 00:07:50;;;;;;;1094.88;999.90;;;;;;;2.28;65.92;102167.88;688728;28;46368;-69
2021/11/23 00:08:12;;;;;;;1094.13;999.90;;;;;;;2.29;65.99;102172.28;690915;28;21484;-69
2021/11/23 00:08:34;;;;;;;1088.18;999.90;;;;;;;2.29;66.03;102168.75;689194;28;69438;-69
2021/11/23 00:08:55;;;;;;;1085.68;999.90;;;;;;;2.27;66.01;102159.97;691944;28;23436;-69
2021/11/23 00:09:17;;;;;;;1093.20;999.90;;;;;;;2.27;66.08;102157.31;693275;28;23447;-69
2021/11/23 00:09:39;;;;;;;1095.65;999.90;;;;;;;2.30;66.20;102159.78;691569;28;69369;-70
2021/11/23 00:10:00;;;;;;;1095.90;999.90;;;;;;;2.29;66.22;102158.09;693363;28;22192;-69
2021/11/23 00:10:22;;;;;;;1097.45;999.90;;;;;;;2.29;65.96;102161.63;692577;28;46703;-69
2021/11/23 00:10:47;;;;;;;1097.50;999.90;;;;;;;2.28;66.13;102159.88;693153;28;14274;-69
2021/11/23 00:11:08;;;;;;;1093.20;999.90;;;;;;;2.24;66.14;102149.47;690251;28;46375;-69
2021/11/23 00:11:30;;;;;;;1092.00;999.90;;;;;;;2.27;66.19;102166.19;690719;28;43675;-69
2021/11/23 00:11:52;;;;;;;1092.47;999.90;;;;;;;2.26;66.22;102156.47;690488;28;23492;-69
2021/11/23 00:12:13;;;;;;;1090.60;999.90;;;;;;;2.26;66.22;102161.78;688293;28;67459;-69
2021/11/23 00:12:35;;;;;;;1087.25;999.90;;;;;;;2.26;66.19;102158.28;690381;28;22377;-69
2021/11/23 00:12:56;;;;;;;1089.22;999.90;;;;;;;2.26;66.29;102160.94;690745;28;21418;-69
2021/11/23 00:13:19;;;;;;;1085.88;999.90;;;;;;;2.24;66.35;102161.03;690330;28;43978;-69
2021/11/23 00:13:40;;;;;;;1085.88;999.90;;;;;;;2.24;66.32;102161.03;689633;28;69403;-69
2021/11/23 00:14:02;;;;;;;1089.20;999.90;;;;;;;2.24;66.33;102160.16;691219;28;21544;-70
2021/11/23 00:14:23;;;;;;;1089.78;999.90;;;;;;;2.25;66.43;102161.88;691333;28;21532;-69
2021/11/23 00:14:47;;;;;;;1090.70;999.90;;;;;;;2.25;66.23;102161.88;690202;28;46384;-69
2021/11/23 00:15:09;;;;;;;1089.82;999.90;;;;;;;2.25;66.41;102160.06;688219;28;92160;-70
2021/11/23 00:15:33;;;;;;;1092.63;999.90;;;;;;;2.24;66.35;102163.69;690925;28;22136;-69
2021/11/23 00:15:55;;;;;;;1086.20;999.90;;;;;;;2.25;66.37;102167.22;687305;28;115287;-69
2021/11/23 00:16:17;;;;;;;1078.45;999.90;;;;;;;2.25;66.43;102167.22;690830;28;22403;-69
2021/11/23 00:16:39;;;;;;;1073.00;999.90;;;;;;;2.24;66.39;102163.69;689033;28;67510;-69
2021/11/23 00:17:02;;;;;;;1074.35;999.90;;;;;;;2.23;66.42;102169.97;690468;28;45254;-70
2021/11/23 00:17:23;;;;;;;1084.38;999.90;;;;;;;2.24;66.39;102169.03;690191;28;45220;-69
2021/11/23 00:17:45;;;;;;;1085.65;999.90;;;;;;;2.24;66.59;102166.34;688868;28;46205;-69
2021/11/23 00:18:09;;;;;;;1086.90;999.90;;;;;;;2.24;66.47;102162.81;689860;28;46322;-69
2021/11/23 00:18:30;;;;;;;1085.95;999.90;;;;;;;2.25;66.53;102169.88;689860;28;68320;-70
2021/11/23 00:18:52;;;;;;;1078.43;999.90;;;;;;;2.25;66.56;102167.22;690008;28;46383;-69
2021/11/23 00:19:14;;;;;;;1091.25;999.90;;;;;;;2.26;66.46;102168.94;689049;28;46310;-69
2021/11/23 00:19:35;;;;;;;1098.07;999.90;;;;;;;2.25;66.45;102172.53;689634;28;46606;-69
2021/11/23 00:19:57;;;;;;;1098.47;999.90;;;;;;;2.27;66.65;102165.31;690844;28;21530;-69
2021/11/23 00:20:20;;;;;;;1098.25;999.90;;;;;;;2.25;66.52;102175.22;690448;28;44337;-69
2021/11/23 00:20:43;;;;;;;1099.07;999.90;;;;;;;2.26;66.60;102169.78;688996;28;69426;-69
2021/11/23 00:21:04;;;;;;;1101.57;999.90;;;;;;;2.26;66.61;102168.94;689233;28;69277;-69
2021/11/23 00:21:27;;;;;;;1094.05;999.90;;;;;;;2.25;66.56;102173.38;691929;28;1608;-69
2021/11/23 00:21:48;;;;;;;1097.18;999.90;;;;;;;2.25;66.66;102170.72;689562;28;69329;-69
2021/11/23 00:22:09;;;;;;;1097.80;999.90;;;;;;;2.25;66.60;102161.88;691082;28;20854;-69
2021/11/23 00:22:31;;;;;;;1097.65;999.90;;;;;;;2.26;66.71;102163.59;691721;28;22409;-69
2021/11/23 00:22:54;;;;;;;1098.82;999.90;;;;;;;2.24;66.63;102166.34;689268;28;46314;-69
2021/11/23 00:23:17;;;;;;;1095.35;999.90;;;;;;;2.25;66.63;102161.88;689309;28;69435;-69
2021/11/23 00:23:39;;;;;;;1094.00;999.90;;;;;;;2.25;66.67;102165.38;689274;28;67464;-70
2021/11/23 00:24:00;;;;;;;1094.65;999.90;;;;;;;2.25;66.76;102154.72;690200;28;45352;-69
2021/11/23 00:24:22;;;;;;;1091.72;999.90;;;;;;;2.28;66.74;102164.38;691176;28;22385;-69
2021/11/23 00:24:44;;;;;;;1094.30;999.90;;;;;;;2.27;66.87;102158.19;690142;28;45238;-69
2021/11/23 00:25:08;;;;;;;1096.18;999.90;;;;;;;2.27;66.83;102155.53;687326;28;115164;-68
2021/11/23 00:25:31;;;;;;;1097.07;999.90;;;;;;;2.29;66.58;102158.94;689644;28;68302;-68
2021/11/23 00:25:53;;;;;;;1096.10;999.90;;;;;;;2.28;66.73;102159.03;690368;28;44358;-69
2021/11/23 00:26:14;;;;;;;1094.57;999.90;;;;;;;2.30;66.63;102163.34;690628;28;45221;-69
2021/11/23 00:26:36;;;;;;;1097.82;999.90;;;;;;;2.28;66.74;102159.88;690923;28;46439;-69
2021/11/23 00:26:57;;;;;;;1097.65;999.90;;;;;;;2.29;66.69;102158.09;691600;28;7437;-69
2021/11/23 00:27:19;;;;;;;1098.55;999.90;;;;;;;2.31;66.66;102158.84;691491;28;22369;-69
2021/11/23 00:27:41;;;;;;;1104.15;999.90;;;;;;;2.31;66.62;102154.38;687985;28;69282;-68
2021/11/23 00:28:02;;;;;;;1100.95;999.90;;;;;;;2.30;66.58;102154.47;691000;28;22358;-69
2021/11/23 00:28:25;;;;;;;1099.40;999.90;;;;;;;2.30;66.62;102165.13;690241;28;47611;-69
2021/11/23 00:28:46;;;;;;;1098.93;999.90;;;;;;;2.30;66.69;102154.47;690398;28;45198;-69
2021/11/23 00:29:08;;;;;;;1095.65;999.90;;;;;;;2.31;66.69;102161.53;690265;28;45313;-69
2021/11/23 00:29:29;;;;;;;1097.93;999.90;;;;;;;2.31;66.61;102153.53;691555;28;22407;-69
2021/11/23 00:29:56;;;;;;;1094.25;999.90;;;;;;;2.32;66.75;102165.88;690872;28;13584;-69
2021/11/23 00:30:17;;;;;;;1096.43;999.90;;;;;;;2.30;66.79;102158.00;688380;28;92127;-69
2021/11/23 00:30:39;;;;;;;1092.72;999.90;;;;;;;2.29;66.84;102153.63;690905;28;22383;-69
2021/11/23 00:31:01;;;;;;;1093.75;999.90;;;;;;;2.28;66.78;102153.69;689478;28;69066;-69
2021/11/23 00:31:23;;;;;;;1087.30;999.90;;;;;;;2.25;66.76;102154.72;691161;28;23491;-69
2021/11/23 00:31:45;;;;;;;1084.00;999.90;;;;;;;2.28;66.87;102154.56;687811;28;69320;-69
2021/11/23 00:32:06;;;;;;;1073.07;999.90;;;;;;;2.28;66.88;102156.38;689648;28;22412;-69
2021/11/23 00:32:28;;;;;;;1089.75;999.90;;;;;;;2.31;66.97;102153.53;690501;28;45340;-69
2021/11/23 00:32:50;;;;;;;1099.75;999.90;;;;;;;2.31;66.93;102159.72;688762;28;21440;-69
2021/11/23 00:33:12;;;;;;;1098.95;999.90;;;;;;;2.30;66.84;102157.13;688762;28;45275;-69
2021/11/23 00:33:40;;;;;;;1095.15;999.90;;;;;;;2.31;66.77;102150.88;690262;28;46177;-69
2021/11/23 00:34:02;;;;;;;1098.93;999.90;;;;;;;2.30;66.81;102150.00;686950;28;136133;-69
2021/11/23 00:34:23;;;;;;;1094.95;999.90;;;;;;;2.29;66.76;102148.28;691173;28;22378;-69
2021/11/23 00:34:46;;;;;;;1091.50;999.90;;;;;;;2.30;66.78;102151.78;690773;28;46124;-69
2021/11/23 00:35:08;;;;;;;1095.00;999.90;;;;;;;2.31;66.79;102145.53;689321;28;46299;-69
2021/11/23 00:35:29;;;;;;;1099.38;999.90;;;;;;;2.30;66.80;102155.34;689781;28;44211;-69
2021/11/23 00:35:51;;;;;;;1097.45;999.90;;;;;;;2.30;66.83;102157.13;689959;28;46312;-69
2021/11/23 00:36:13;;;;;;;1097.78;999.90;;;;;;;2.29;66.80;102156.28;693439;28;44706;-69
2021/11/23 00:36:34;;;;;;;1099.78;999.90;;;;;;;2.29;66.80;102150.09;696219;28;21629;-68
2021/11/23 00:36:56;;;;;;;1100.35;999.90;;;;;;;2.26;66.82;102147.59;693990;28;46745;-69
2021/11/23 00:37:18;;;;;;;1098.88;999.90;;;;;;;2.26;66.84;102142.28;695074;28;22384;-69
2021/11/23 00:37:40;;;;;;;1098.45;999.90;;;;;;;2.28;66.78;102149.22;693342;28;69199;-68
2021/11/23 00:38:05;;;;;;;1103.88;999.90;;;;;;;2.30;66.97;102151.78;694698;28;22464;-69
2021/11/23 00:38:27;;;;;;;1100.15;999.90;;;;;;;2.29;66.91;102153.63;687979;28;113201;-69
2021/11/23 00:38:48;;;;;;;1098.63;999.90;;;;;;;2.28;66.92;102151.03;689220;28;68366;-69
2021/11/23 00:39:10;;;;;;;1095.82;999.90;;;;;;;2.26;66.96;102145.78;690698;28;22492;-69
2021/11/23 00:39:31;;;;;;;1092.40;999.90;;;;;;;2.25;66.98;102152.06;690493;28;46293;-69
2021/11/23 00:39:53;;;;;;;1093.72;999.90;;;;;;;2.27;66.90;102157.31;690273;28;23459;-69
2021/11/23 00:40:15;;;;;;;1093.43;999.90;;;;;;;2.28;66.96;102156.38;690343;28;45185;-70
2021/11/23 00:40:36;;;;;;;1095.15;999.90;;;;;;;2.26;67.12;102151.13;690146;28;44196;-69
2021/11/23 00:40:59;;;;;;;1098.22;999.90;;;;;;;2.26;66.99;102151.13;691047;28;22351;-68
2021/11/23 00:41:20;;;;;;;1097.63;999.90;;;;;;;2.25;67.05;102152.06;689878;28;67592;-69
2021/11/23 00:41:47;;;;;;;1095.78;999.90;;;;;;;2.23;67.05;102153.97;691192;28;23291;-69
2021/11/23 00:42:08;;;;;;;1099.90;999.90;;;;;;;2.23;67.05;102145.97;686937;28;138155;-69
2021/11/23 00:42:30;;;;;;;1097.57;999.90;;;;;;;2.20;67.14;102143.47;691735;28;23453;-69
2021/11/23 00:42:52;;;;;;;1099.13;999.90;;;;;;;2.23;67.06;102150.44;689191;28;46822;-69
2021/11/23 00:43:13;;;;;;;1100.80;999.90;;;;;;;2.23;67.16;102153.13;690165;28;46479;-69
2021/11/23 00:43:36;;;;;;;1100.47;999.90;;;;;;;2.21;67.18;102145.22;690916;28;22454;-69
2021/11/23 00:43:57;;;;;;;1096.93;999.90;;;;;;;2.24;67.21;102146.81;689548;28;68359;-69
2021/11/23 00:44:20;;;;;;;1097.25;999.90;;;;;;;2.23;67.23;102145.13;691155;28;21538;-68
2021/11/23 00:44:42;;;;;;;1095.43;999.90;;;;;;;2.23;67.32;102148.63;689309;28;67479;-69
2021/11/23 00:45:06;;;;;;;1074.68;999.90;;;;;;;2.24;67.24;102146.81;690373;28;44395;-69
2021/11/23 00:45:28;;;;;;;1079.60;999.90;;;;;;;2.23;67.40;102142.44;687374;28;114550;-69
2021/11/23 00:45:49;;;;;;;1095.97;999.90;;;;;;;2.23;67.32;102145.97;690149;28;46736;-69
2021/11/23 00:46:12;;;;;;;1094.65;999.90;;;;;;;2.23;67.34;102143.31;690767;28;22365;-68
2021/11/23 00:46:33;;;;;;;1096.13;999.90;;;;;;;2.23;67.27;102145.13;689275;28;69236;-69
2021/11/23 00:46:55;;;;;;;1097.53;999.90;;;;;;;2.19;67.41;102140.91;691239;28;22409;-69
2021/11/23 00:47:16;;;;;;;1101.97;999.90;;;;;;;2.18;67.44;102142.72;690317;28;46468;-69
2021/11/23 00:47:39;;;;;;;1107.18;999.90;;;;;;;2.17;67.36;102138.31;689490;28;23282;-69
2021/11/23 00:48:01;;;;;;;1107.35;999.90;;;;;;;2.18;67.41;102142.72;688913;28;67350;-69
2021/11/23 00:48:22;;;;;;;1106.65;999.90;;;;;;;2.19;67.39;102143.56;691058;28;31007;-69
2021/11/23 00:48:44;;;;;;;1103.93;999.90;;;;;;;2.19;67.60;102143.56;690636;28;22420;-69
2021/11/23 00:49:06;;;;;;;1106.57;999.90;;;;;;;2.19;67.56;102141.75;689840;28;44380;-69
2021/11/23 00:49:27;;;;;;;1102.78;999.90;;;;;;;2.20;67.61;102145.28;690461;28;46290;-68
2021/11/23 00:49:48;;;;;;;1107.28;999.90;;;;;;;2.19;67.68;102144.41;690994;28;23744;-69
2021/11/23 00:50:10;;;;;;;1108.10;999.90;;;;;;;2.17;67.56;102146.31;689861;28;47160;-69
2021/11/23 00:50:34;;;;;;;1107.45;999.90;;;;;;;2.23;67.54;102139.78;690678;28;46317;-69
2021/11/23 00:50:56;;;;;;;1108.45;999.90;;;;;;;2.24;67.58;102146.81;688010;28;93003;-69
2021/11/23 00:51:17;;;;;;;1109.45;999.90;;;;;;;2.24;67.77;102146.81;691261;28;23473;-69
2021/11/23 00:51:39;;;;;;;1105.28;999.90;;;;;;;2.25;67.62;102144.06;690232;28;45239;-69
2021/11/23 00:52:01;;;;;;;1106.50;999.90;;;;;;;2.27;67.64;102144.84;690741;28;21596;-69
2021/11/23 00:52:22;;;;;;;1099.07;999.90;;;;;;;2.27;67.54;102135.97;690560;28;46333;-69
2021/11/23 00:52:45;;;;;;;1104.53;999.90;;;;;;;2.29;67.64;102144.75;689516;28;46377;-69
2021/11/23 00:53:07;;;;;;;1103.25;999.90;;;;;;;2.29;67.56;102144.75;690211;28;47427;-69
2021/11/23 00:53:29;;;;;;;1105.53;999.90;;;;;;;2.28;67.63;102143.03;691178;28;25131;-69
2021/11/23 00:53:51;;;;;;;1106.22;999.90;;;;;;;2.29;67.62;102144.75;689917;28;55029;-69
2021/11/23 00:54:12;;;;;;;1108.03;999.90;;;;;;;2.27;67.57;102139.53;691532;28;23056;-68
2021/11/23 00:54:34;;;;;;;1104.30;999.90;;;;;;;2.29;67.52;102144.75;690209;28;45252;-69
2021/11/23 00:54:56;;;;;;;1101.10;999.90;;;;;;;2.30;67.51;102143.81;690651;28;22378;-69
2021/11/23 00:55:17;;;;;;;1101.00;999.90;;;;;;;2.28;67.51;102143.88;689017;28;46186;-69
2021/11/23 00:55:39;;;;;;;1101.40;999.90;;;;;;;2.30;67.50;102146.47;689810;28;44156;-69
2021/11/23 00:56:00;;;;;;;1097.15;999.90;;;;;;;2.28;67.43;102143.03;690934;28;22387;-69
2021/11/23 00:56:23;;;;;;;1103.70;999.90;;;;;;;2.25;67.62;102141.41;691547;28;29936;-69
2021/11/23 00:56:45;;;;;;;1099.72;999.90;;;;;;;2.24;67.57;102139.69;689972;28;46413;-69
2021/11/23 00:57:07;;;;;;;1106.10;999.90;;;;;;;2.23;67.60;102147.78;687886;28;67925;-68
2021/11/23 00:57:28;;;;;;;1105.03;999.90;;;;;;;2.22;67.64;102140.72;691106;28;22550;-68
2021/11/23 00:57:50;;;;;;;1107.75;999.90;;;;;;;2.20;67.68;102137.28;688290;28;46200;-68
2021/11/23 00:58:12;;;;;;;1106.88;999.90;;;;;;;2.21;67.72;102142.53;690532;28;46320;-68
2021/11/23 00:58:34;;;;;;;1099.20;999.90;;;;;;;2.23;67.78;102137.13;691069;28;22395;-69
2021/11/23 00:58:55;;;;;;;1103.25;999.90;;;;;;;2.25;67.53;102138.72;690394;28;44207;-69
2021/11/23 00:59:17;;;;;;;1102.55;999.90;;;;;;;2.26;67.80;102144.94;691207;28;22247;-69
2021/11/23 00:59:40;;;;;;;1100.82;999.90;;;;;;;2.28;67.85;102140.38;689431;28;69405;-69
2021/11/23 01:00:07;;;;;;;1107.85;999.90;;;;;;;2.28;67.65;102137.72;689659;28;69459;-69
2021/11/23 01:00:32;;;;;;;1105.25;999.90;;;;;;;2.32;67.64;102141.91;686943;28;83559;-69
2021/11/23 01:00:53;;;;;;;1106.05;999.90;;;;;;;2.32;67.70;102144.56;683665;28;73095;-69
2021/11/23 01:01:16;;;;;;;1103.43;999.90;;;;;;;2.32;67.60;102137.44;685895;28;22405;-69
2021/11/23 01:01:38;;;;;;;1065.93;995.15;;;;;;;2.33;67.66;102140.97;685046;28;45094;-69
2021/11/23 01:01:59;;;;;;;1071.50;999.53;;;;;;;2.35;67.64;102144.38;685034;28;45381;-68
2021/11/23 01:02:21;;;;;;;1108.53;999.90;;;;;;;2.35;67.60;102144.38;687591;28;45369;-69
2021/11/23 01:02:42;;;;;;;1114.38;999.90;;;;;;;2.34;67.56;102135.53;690398;28;21301;-69
2021/11/23 01:03:04;;;;;;;1111.35;999.90;;;;;;;2.39;67.53;102137.94;690685;28;46316;-69
2021/11/23 01:03:27;;;;;;;1108.20;999.90;;;;;;;2.40;67.43;102141.44;691004;28;46260;-69
2021/11/23 01:03:53;;;;;;;1107.13;999.90;;;;;;;2.40;67.47;102141.44;689841;28;60341;-69
2021/11/23 01:04:14;;;;;;;1108.97;999.90;;;;;;;2.38;67.42;102138.88;691108;28;18925;-69
2021/11/23 01:04:37;;;;;;;1108.25;999.90;;;;;;;2.39;67.49;102134.41;690471;28;45048;-68
2021/11/23 01:04:58;;;;;;;1106.30;999.90;;;;;;;2.39;67.55;102137.09;690717;28;40591;-69
2021/11/23 01:05:19;;;;;;;1108.15;999.90;;;;;;;2.39;67.54;102129.09;694449;28;21059;-69
2021/11/23 01:05:41;;;;;;;1108.35;999.90;;;;;;;2.38;67.50;102140.69;693645;28;22409;-69
2021/11/23 01:06:03;;;;;;;1103.68;999.90;;;;;;;2.37;67.56;102137.19;689816;28;46420;-69
2021/11/23 01:06:25;;;;;;;1107.28;999.90;;;;;;;2.34;67.60;102126.69;694299;28;45298;-69
2021/11/23 01:06:49;;;;;;;1106.65;999.90;;;;;;;2.36;67.62;102137.25;694431;28;44386;-69
2021/11/23 01:07:10;;;;;;;1102.30;999.90;;;;;;;2.37;67.61;102142.50;691851;28;92712;-69
2021/11/23 01:07:33;;;;;;;1109.38;999.90;;;;;;;2.34;67.66;102132.88;692388;28;23420;-68
2021/11/23 01:07:55;;;;;;;1108.95;999.90;;;;;;;2.34;67.57;102137.34;689102;28;66475;-69
2021/11/23 01:08:17;;;;;;;1110.25;999.90;;;;;;;2.36;67.61;102135.44;689689;28;69171;-69
2021/11/23 01:08:39;;;;;;;1110.32;999.90;;;;;;;2.37;67.48;102137.19;690624;28;44359;-69
2021/11/23 01:09:01;;;;;;;1109.10;999.90;;;;;;;2.36;67.47;102138.13;689810;28;67565;-69
2021/11/23 01:09:22;;;;;;;1111.53;999.90;;;;;;;2.38;67.51;102127.34;691571;28;21425;-69
2021/11/23 01:09:44;;;;;;;1113.97;999.90;;;;;;;2.40;67.55;102136.13;690771;28;22424;-69
2021/11/23 01:10:09;;;;;;;1109.72;999.90;;;;;;;2.41;67.51;102136.03;690352;28;45267;-69
2021/11/23 01:10:30;;;;;;;1108.57;999.90;;;;;;;2.41;67.53;102130.69;688632;28;115073;-69
2021/11/23 01:10:51;;;;;;;1109.25;999.90;;;;;;;2.41;67.59;102122.69;691500;28;22251;-69
2021/11/23 01:11:16;;;;;;;1113.22;999.90;;;;;;;2.39;67.48;102123.75;691361;28;21555;-69
2021/11/23 01:11:38;;;;;;;1112.38;999.90;;;;;;;2.38;67.46;102132.69;688036;28;114998;-69
2021/11/23 01:11:59;;;;;;;1112.00;999.90;;;;;;;2.36;67.61;102126.59;690816;28;45317;-70
2021/11/23 01:12:20;;;;;;;1113.88;999.90;;;;;;;2.33;67.58;102125.81;691763;28;21546;-69
2021/11/23 01:12:43;;;;;;;1116.32;999.90;;;;;;;2.34;67.56;102126.69;691085;28;23545;-68
2021/11/23 01:13:05;;;;;;;1116.47;999.90;;;;;;;2.33;67.58;102123.13;689535;28;69378;-69
2021/11/23 01:13:26;;;;;;;1113.50;999.90;;;;;;;2.31;67.62;102121.53;691201;28;46415;-69
2021/11/23 01:13:49;;;;;;;1114.97;999.90;;;;;;;2.32;67.70;102121.44;691105;28;22387;-69
2021/11/23 01:14:11;;;;;;;1112.45;999.90;;;;;;;2.32;67.65;102124.09;690459;28;70131;-69
2021/11/23 01:14:34;;;;;;;1116.50;999.90;;;;;;;2.34;67.67;102116.03;689829;28;69419;-69
2021/11/23 01:14:56;;;;;;;1116.22;999.90;;;;;;;2.37;67.79;102117.63;689509;28;67541;-68
2021/11/23 01:15:20;;;;;;;1104.90;999.90;;;;;;;2.36;67.88;102116.78;691403;28;23494;-69
2021/11/23 01:15:41;;;;;;;1053.60;983.70;;;;;;;2.36;67.75;102115.94;687573;28;92107;-69
2021/11/23 01:16:03;;;;;;;1064.10;993.55;;;;;;;2.35;67.87;102120.38;691272;28;23589;-69
2021/11/23 01:16:25;;;;;;;1109.45;999.90;;;;;;;2.35;67.81;102117.72;691104;28;46303;-69
2021/11/23 01:16:48;;;;;;;1113.45;999.90;;;;;;;2.34;67.74;102113.34;691381;28;20997;-69
2021/11/23 01:17:10;;;;;;;1113.80;999.90;;;;;;;2.33;67.84;102116.97;688863;28;90333;-69
2021/11/23 01:17:31;;;;;;;1115.65;999.90;;;;;;;2.33;67.81;102125.81;691723;28;22369;-69
2021/11/23 01:17:54;;;;;;;1116.78;999.90;;;;;;;2.32;67.82;102124.09;689433;28;44494;-69
2021/11/23 01:18:15;;;;;;;1116.18;999.90;;;;;;;2.32;67.78;102125.91;689574;28;46397;-69
2021/11/23 01:18:37;;;;;;;1111.82;999.90;;;;;;;2.30;67.90;102119.81;691566;28;22389;-69
2021/11/23 01:18:58;;;;;;;1110.45;999.90;;;;;;;2.30;67.81;102122.47;689472;28;70124;-69
2021/11/23 01:19:20;;;;;;;1114.20;999.90;;;;;;;2.27;67.91;102119.97;691374;28;23490;-69
2021/11/23 01:19:42;;;;;;;1112.38;999.90;;;;;;;2.26;67.94;102120.94;690764;28;22436;-69
2021/11/23 01:20:07;;;;;;;1116.32;999.90;;;;;;;2.25;67.90;102127.22;689397;28;69450;-69
2021/11/23 01:20:29;;;;;;;1113.88;999.90;;;;;;;2.22;67.93;102120.25;688689;28;113581;-69
2021/11/23 01:20:50;;;;;;;1112.22;999.90;;;;;;;2.22;68.01;102122.91;690891;28;22205;-69
2021/11/23 01:21:14;;;;;;;1113.53;999.90;;;;;;;2.19;67.96;102123.09;690777;28;23385;-69
2021/11/23 01:21:35;;;;;;;1115.00;999.90;;;;;;;2.19;68.21;102116.91;688543;28;92210;-69
2021/11/23 01:21:57;;;;;;;1113.05;999.90;;;;;;;2.19;68.23;102116.91;689017;28;44385;-69
2021/11/23 01:22:18;;;;;;;1118.82;999.90;;;;;;;2.19;68.29;102120.41;691907;28;23514;-69
2021/11/23 01:22:42;;;;;;;1121.05;999.90;;;;;;;2.16;68.44;102118.81;690514;28;23463;-69
2021/11/23 01:23:05;;;;;;;1118.15;999.90;;;;;;;2.15;68.38;102117.09;689720;28;67076;-68
2021/11/23 01:23:27;;;;;;;1119.53;999.90;;;;;;;2.13;68.51;102124.31;691037;28;44268;-68
2021/11/23 01:23:48;;;;;;;1117.43;999.90;;;;;;;2.14;68.14;102119.84;690468;28;45294;-69
2021/11/23 01:24:10;;;;;;;1117.25;999.90;;;;;;;2.13;68.44;102120.78;690580;28;45257;-70
2021/11/23 01:24:32;;;;;;;1114.47;999.90;;;;;;;2.12;68.51;102124.41;691110;28;46292;-69
2021/11/23 01:24:54;;;;;;;1114.15;999.90;;;;;;;2.07;68.47;102119.34;689074;28;46391;-69
2021/11/23 01:25:15;;;;;;;1114.25;999.90;;;;;;;2.05;68.55;102113.22;691253;28;22477;-69
2021/11/23 01:25:38;;;;;;;1119.07;999.90;;;;;;;2.08;68.62;102122.84;690020;28;46359;-69
2021/11/23 01:25:59;;;;;;;1116.15;999.90;;;;;;;2.07;68.70;102126.44;690651;28;44314;-69
2021/11/23 01:26:20;;;;;;;1116.05;999.90;;;;;;;2.06;68.90;102122.09;691107;28;45254;-68
2021/11/23 01:26:43;;;;;;;1116.85;999.90;;;;;;;2.06;68.74;102122.94;689865;28;23493;-69
2021/11/23 01:27:05;;;;;;;1116.45;999.90;;;;;;;2.04;68.85;102122.19;688374;28;69456;-69
2021/11/23 01:27:28;;;;;;;1118.82;999.90;;;;;;;2.04;68.90;102122.19;688856;28;91905;-69
2021/11/23 01:27:50;;;;;;;1119.05;999.90;;;;;;;2.04;68.74;102119.50;689365;28;23483;-69
2021/11/23 01:28:12;;;;;;;1119.07;999.90;;;;;;;2.08;68.88;102125.50;690649;28;46420;-69
2021/11/23 01:28:34;;;;;;;1119.65;999.90;;;;;;;2.08;68.87;102126.38;690323;28;45214;-69
2021/11/23 01:28:55;;;;;;;1119.13;999.90;;;;;;;2.10;69.01;102120.94;690292;28;44339;-69
2021/11/23 01:29:20;;;;;;;1118.55;999.90;;;;;;;2.09;69.03;102121.91;691801;28;13567;-69
2021/11/23 01:29:42;;;;;;;1115.68;999.90;;;;;;;2.08;68.84;102121.03;690473;28;46283;-69
2021/11/23 01:30:04;;;;;;;1118.72;999.90;;;;;;;2.09;69.05;102116.59;690706;28;46261;-69
2021/11/23 01:30:27;;;;;;;1117.00;999.90;;;;;;;2.09;68.86;102113.91;690785;28;46309;-69
2021/11/23 01:30:50;;;;;;;1118.05;999.90;;;;;;;2.08;68.87;102109.53;691656;28;68951;-69
2021/11/23 01:31:12;;;;;;;1116.43;999.90;;;;;;;2.10;68.91;102112.94;691885;28;67492;-70
2021/11/23 01:31:33;;;;;;;1119.40;999.90;;;;;;;2.11;68.92;102120.00;692722;28;44319;-69
2021/11/23 01:31:56;;;;;;;1118.85;999.90;;;;;;;2.09;68.91;102109.44;693726;28;23818;-69
2021/11/23 01:32:17;;;;;;;1114.50;999.90;;;;;;;2.07;68.92;102115.78;692951;28;67495;-69
2021/11/23 01:32:39;;;;;;;1119.05;999.90;;;;;;;2.10;68.90;102116.50;694066;28;23482;-69
2021/11/23 01:33:01;;;;;;;1119.35;999.90;;;;;;;2.11;68.99;102117.34;689565;28;44342;-68
2021/11/23 01:33:24;;;;;;;1118.35;999.90;;;;;;;2.10;68.97;102115.63;690598;28;46327;-69
2021/11/23 01:33:45;;;;;;;1122.57;999.90;;;;;;;2.10;68.91;102112.94;688197;28;69495;-69
2021/11/23 01:34:07;;;;;;;1125.47;999.90;;;;;;;2.09;68.83;102108.59;689417;28;21537;-69
2021/11/23 01:34:28;;;;;;;1124.40;999.90;;;;;;;2.07;68.84;102108.69;690040;28;46425;-69
2021/11/23 01:34:50;;;;;;;1124.63;999.90;;;;;;;2.07;68.87;102108.69;690652;28;22401;-69
2021/11/23 01:35:13;;;;;;;1127.07;999.90;;;;;;;2.09;68.84;102113.91;687951;28;69407;-69
2021/11/23 01:35:42;;;;;;;1125.28;999.90;;;;;;;2.05;68.86;102104.38;690581;28;46227;-69
2021/11/23 01:36:22;;;;;;;1118.95;999.90;;;;;;;2.06;68.82;102108.75;689947;28;60229;-69
2021/11/23 01:36:43;;;;;;;1120.70;999.90;;;;;;;2.07;68.83;102114.00;689921;28;46306;-69
2021/11/23 01:37:05;;;;;;;1127.03;999.90;;;;;;;2.08;68.91;102109.53;691007;28;23536;-69
2021/11/23 01:37:27;;;;;;;1124.30;999.90;;;;;;;2.06;68.83;102109.63;690621;28;46317;-69
2021/11/23 01:37:49;;;;;;;1123.00;999.90;;;;;;;2.08;68.89;102106.88;688007;28;46299;-69
2021/11/23 01:38:10;;;;;;;1124.68;999.90;;;;;;;2.08;68.89;102105.03;689250;28;46540;-69
2021/11/23 01:38:32;;;;;;;1123.97;999.90;;;;;;;2.11;69.03;102112.03;691744;28;23264;-69
2021/11/23 01:38:54;;;;;;;1119.20;999.90;;;;;;;2.09;68.80;102103.25;690332;28;46387;-69
2021/11/23 01:39:15;;;;;;;1116.45;999.90;;;;;;;2.09;68.89;102114.78;690931;28;44354;-69
2021/11/23 01:39:37;;;;;;;1119.40;999.90;;;;;;;2.09;68.79;102101.44;690246;28;45222;-69